sensor_id;sensor_type;location;lat;lon;timestamp;temperature;humidity
39983;DHT22;25670;44.782;10.356;2023-04-24T00:01:16;13.60;99.90
39983;DHT22;25670;44.782;10.356;2023-04-24T00:03:43;13.70;99.90
39983;DHT22;25670;44.782;10.356;2023-04-24T00:06:09;13.70;99.90
39983;DHT22;25670;44.782;10.356;2023-04-24T00:08:35;13.80;99.90
39983;DHT22;25670;44.782;10.356;2023-04-24T00:11:02;13.90;99.90
39983;DHT22;25670;44.782;10.356;2023-04-24T00:13:29;13.90;99.90
39983;DHT22;25670;44.782;10.356;2023-04-24T00:15:56;13.90;99.90
39983;DHT22;25670;44.782;10.356;2023-04-24T00:18:22;14.00;99.90
39983;DHT22;25670;44.782;10.356;2023-04-24T00:20:48;14.10;99.90
39983;DHT22;25670;44.782;10.356;2023-04-24T00:23:14;14.10;99.90
39983;DHT22;25670;44.782;10.356;2023-04-24T00:25:41;14.10;99.90
39983;DHT22;25670;44.782;10.356;2023-04-24T00:30:47;14.20;99.90
39983;DHT22;25670;44.782;10.356;2023-04-24T00:33:13;14.20;99.90
39983;DHT22;25670;44.782;10.356;2023-04-24T00:35:40;13.90;99.90
39983;DHT22;25670;44.782;10.356;2023-04-24T00:38:07;13.70;99.90
39983;DHT22;25670;44.782;10.356;2023-04-24T00:40:33;13.10;99.90
39983;DHT22;25670;44.782;10.356;2023-04-24T00:45:26;13.30;99.90
39983;DHT22;25670;44.782;10.356;2023-04-24T00:47:53;13.30;99.90
39983;DHT22;25670;44.782;10.356;2023-04-24T00:50:23;13.60;99.90
39983;DHT22;25670;44.782;10.356;2023-04-24T00:52:50;13.10;99.90
39983;DHT22;25670;44.782;10.356;2023-04-24T00:55:17;13.30;99.90
39983;DHT22;25670;44.782;10.356;2023-04-24T00:57:44;13.20;99.90
39983;DHT22;25670;44.782;10.356;2023-04-24T01:00:11;13.20;99.90
39983;DHT22;25670;44.782;10.356;2023-04-24T01:02:40;13.10;99.90
39983;DHT22;25670;44.782;10.356;2023-04-24T01:05:10;13.10;99.90
39983;DHT22;25670;44.782;10.356;2023-04-24T01:07:39;13.20;99.90
39983;DHT22;25670;44.782;10.356;2023-04-24T01:10:10;13.10;99.90
39983;DHT22;25670;44.782;10.356;2023-04-24T01:12:37;13.20;99.90
39983;DHT22;25670;44.782;10.356;2023-04-24T01:15:05;13.40;99.90
39983;DHT22;25670;44.782;10.356;2023-04-24T01:17:34;13.30;99.90
39983;DHT22;25670;44.782;10.356;2023-04-24T01:20:02;13.30;99.90
39983;DHT22;25670;44.782;10.356;2023-04-24T01:22:33;13.20;99.90
39983;DHT22;25670;44.782;10.356;2023-04-24T01:25:00;13.20;99.90
39983;DHT22;25670;44.782;10.356;2023-04-24T01:27:29;13.20;99.90
39983;DHT22;25670;44.782;10.356;2023-04-24T01:29:56;13.30;99.90
39983;DHT22;25670;44.782;10.356;2023-04-24T01:32:23;13.10;99.90
39983;DHT22;25670;44.782;10.356;2023-04-24T01:34:50;13.10;99.90
39983;DHT22;25670;44.782;10.356;2023-04-24T01:39:46;13.10;99.90
39983;DHT22;25670;44.782;10.356;2023-04-24T01:42:13;13.00;99.90
39983;DHT22;25670;44.782;10.356;2023-04-24T01:44:41;13.00;99.90
39983;DHT22;25670;44.782;10.356;2023-04-24T01:47:11;13.30;99.90
39983;DHT22;25670;44.782;10.356;2023-04-24T01:49:40;13.10;99.90
39983;DHT22;25670;44.782;10.356;2023-04-24T01:52:12;13.00;99.90
39983;DHT22;25670;44.782;10.356;2023-04-24T01:54:39;13.00;99.90
39983;DHT22;25670;44.782;10.356;2023-04-24T01:57:05;13.00;99.90
39983;DHT22;25670;44.782;10.356;2023-04-24T01:59:33;13.10;99.90
39983;DHT22;25670;44.782;10.356;2023-04-24T02:02:00;13.00;99.90
39983;DHT22;25670;44.782;10.356;2023-04-24T02:04:26;12.90;99.90
39983;DHT22;25670;44.782;10.356;2023-04-24T02:06:53;13.00;99.90
39983;DHT22;25670;44.782;10.356;2023-04-24T02:09:19;12.80;99.90
39983;DHT22;25670;44.782;10.356;2023-04-24T02:11:45;12.70;99.90
39983;DHT22;25670;44.782;10.356;2023-04-24T02:14:12;12.80;99.90
39983;DHT22;25670;44.782;10.356;2023-04-24T02:16:39;12.70;99.90
39983;DHT22;25670;44.782;10.356;2023-04-24T02:21:32;12.80;99.90
39983;DHT22;25670;44.782;10.356;2023-04-24T02:23:58;12.50;99.90
39983;DHT22;25670;44.782;10.356;2023-04-24T02:26:25;12.50;99.90
39983;DHT22;25670;44.782;10.356;2023-04-24T02:28:52;12.50;99.90
39983;DHT22;25670;44.782;10.356;2023-04-24T02:31:20;12.60;99.90
39983;DHT22;25670;44.782;10.356;2023-04-24T02:33:47;12.50;99.90
39983;DHT22;25670;44.782;10.356;2023-04-24T02:36:14;12.40;99.90
39983;DHT22;25670;44.782;10.356;2023-04-24T02:38:40;12.40;99.90
39983;DHT22;25670;44.782;10.356;2023-04-24T02:41:06;12.40;99.90
39983;DHT22;25670;44.782;10.356;2023-04-24T02:43:33;12.40;99.90
39983;DHT22;25670;44.782;10.356;2023-04-24T02:46:00;12.40;99.90
39983;DHT22;25670;44.782;10.356;2023-04-24T02:48:26;12.40;99.90
39983;DHT22;25670;44.782;10.356;2023-04-24T02:50:52;12.40;99.90
39983;DHT22;25670;44.782;10.356;2023-04-24T02:53:19;12.30;99.90
39983;DHT22;25670;44.782;10.356;2023-04-24T02:55:45;12.40;99.90
39983;DHT22;25670;44.782;10.356;2023-04-24T02:58:12;12.40;99.90
39983;DHT22;25670;44.782;10.356;2023-04-24T03:03:06;12.50;99.90
39983;DHT22;25670;44.782;10.356;2023-04-24T03:05:33;12.60;99.90
39983;DHT22;25670;44.782;10.356;2023-04-24T03:07:59;12.60;99.90
39983;DHT22;25670;44.782;10.356;2023-04-24T03:10:26;12.60;99.90
39983;DHT22;25670;44.782;10.356;2023-04-24T03:12:52;12.70;99.90
39983;DHT22;25670;44.782;10.356;2023-04-24T03:15:18;12.70;99.90
39983;DHT22;25670;44.782;10.356;2023-04-24T03:17:45;12.70;99.90
39983;DHT22;25670;44.782;10.356;2023-04-24T03:20:11;12.80;99.90
39983;DHT22;25670;44.782;10.356;2023-04-24T03:22:38;12.80;99.90
39983;DHT22;25670;44.782;10.356;2023-04-24T03:25:07;12.80;99.90
39983;DHT22;25670;44.782;10.356;2023-04-24T03:27:35;12.80;99.90
39983;DHT22;25670;44.782;10.356;2023-04-24T03:30:09;12.70;99.90
39983;DHT22;25670;44.782;10.356;2023-04-24T03:32:50;12.90;99.90
39983;DHT22;25670;44.782;10.356;2023-04-24T03:35:22;12.90;99.90
39983;DHT22;25670;44.782;10.356;2023-04-24T03:37:48;13.00;99.90
39983;DHT22;25670;44.782;10.356;2023-04-24T03:40:33;13.00;99.90
39983;DHT22;25670;44.782;10.356;2023-04-24T03:43:01;12.70;99.90
39983;DHT22;25670;44.782;10.356;2023-04-24T03:45:29;13.00;99.90
39983;DHT22;25670;44.782;10.356;2023-04-24T03:47:56;13.10;99.90
39983;DHT22;25670;44.782;10.356;2023-04-24T03:50:22;13.00;99.90
39983;DHT22;25670;44.782;10.356;2023-04-24T03:52:51;13.00;99.90
39983;DHT22;25670;44.782;10.356;2023-04-24T03:55:28;12.90;99.90
39983;DHT22;25670;44.782;10.356;2023-04-24T03:57:55;13.10;99.90
39983;DHT22;25670;44.782;10.356;2023-04-24T04:00:22;13.10;99.90
39983;DHT22;25670;44.782;10.356;2023-04-24T04:02:57;13.10;99.90
39983;DHT22;25670;44.782;10.356;2023-04-24T04:05:24;13.00;99.90
39983;DHT22;25670;44.782;10.356;2023-04-24T04:07:50;12.70;99.90
39983;DHT22;25670;44.782;10.356;2023-04-24T04:10:16;12.90;99.90
39983;DHT22;25670;44.782;10.356;2023-04-24T04:12:43;12.90;99.90
39983;DHT22;25670;44.782;10.356;2023-04-24T04:15:09;12.90;99.90
39983;DHT22;25670;44.782;10.356;2023-04-24T04:17:36;12.80;99.90
39983;DHT22;25670;44.782;10.356;2023-04-24T04:20:06;12.80;99.90
39983;DHT22;25670;44.782;10.356;2023-04-24T04:22:38;12.80;99.90
39983;DHT22;25670;44.782;10.356;2023-04-24T04:25:07;12.70;99.90
39983;DHT22;25670;44.782;10.356;2023-04-24T04:27:34;12.60;99.90
39983;DHT22;25670;44.782;10.356;2023-04-24T04:30:08;12.60;99.90
39983;DHT22;25670;44.782;10.356;2023-04-24T04:32:44;12.60;99.90
39983;DHT22;25670;44.782;10.356;2023-04-24T04:35:11;12.70;99.90
39983;DHT22;25670;44.782;10.356;2023-04-24T04:37:37;12.60;99.90
39983;DHT22;25670;44.782;10.356;2023-04-24T04:40:19;12.60;99.90
39983;DHT22;25670;44.782;10.356;2023-04-24T04:42:51;12.60;99.90
39983;DHT22;25670;44.782;10.356;2023-04-24T04:48:09;12.50;99.90
39983;DHT22;25670;44.782;10.356;2023-04-24T04:50:38;12.40;99.90
39983;DHT22;25670;44.782;10.356;2023-04-24T04:53:07;12.30;99.90
39983;DHT22;25670;44.782;10.356;2023-04-24T04:58:24;12.20;99.90
39983;DHT22;25670;44.782;10.356;2023-04-24T05:00:54;12.20;99.90
39983;DHT22;25670;44.782;10.356;2023-04-24T05:03:26;12.20;99.90
39983;DHT22;25670;44.782;10.356;2023-04-24T05:05:58;12.10;99.90
39983;DHT22;25670;44.782;10.356;2023-04-24T05:08:25;12.20;99.90
39983;DHT22;25670;44.782;10.356;2023-04-24T05:10:52;12.20;99.90
39983;DHT22;25670;44.782;10.356;2023-04-24T05:13:19;12.10;99.90
39983;DHT22;25670;44.782;10.356;2023-04-24T05:15:46;12.20;99.90
39983;DHT22;25670;44.782;10.356;2023-04-24T05:18:14;12.10;99.90
39983;DHT22;25670;44.782;10.356;2023-04-24T05:20:41;12.10;99.90
39983;DHT22;25670;44.782;10.356;2023-04-24T05:23:10;12.10;99.90
39983;DHT22;25670;44.782;10.356;2023-04-24T05:25:39;12.10;99.90
39983;DHT22;25670;44.782;10.356;2023-04-24T05:28:10;13.30;99.90
39983;DHT22;25670;44.782;10.356;2023-04-24T05:30:36;12.40;99.90
39983;DHT22;25670;44.782;10.356;2023-04-24T05:33:03;12.40;99.90
39983;DHT22;25670;44.782;10.356;2023-04-24T05:35:34;12.40;99.90
39983;DHT22;25670;44.782;10.356;2023-04-24T05:38:01;12.60;99.90
39983;DHT22;25670;44.782;10.356;2023-04-24T05:40:27;12.60;99.90
39983;DHT22;25670;44.782;10.356;2023-04-24T05:42:53;12.60;99.90
39983;DHT22;25670;44.782;10.356;2023-04-24T05:45:20;12.70;99.90
39983;DHT22;25670;44.782;10.356;2023-04-24T05:47:47;12.70;99.90
39983;DHT22;25670;44.782;10.356;2023-04-24T05:50:13;12.70;99.90
39983;DHT22;25670;44.782;10.356;2023-04-24T05:52:39;12.70;99.90
39983;DHT22;25670;44.782;10.356;2023-04-24T05:55:17;12.70;99.90
39983;DHT22;25670;44.782;10.356;2023-04-24T05:57:44;12.70;99.90
39983;DHT22;25670;44.782;10.356;2023-04-24T06:00:11;12.80;99.90
39983;DHT22;25670;44.782;10.356;2023-04-24T06:02:45;12.80;99.90
39983;DHT22;25670;44.782;10.356;2023-04-24T06:05:13;12.90;99.90
39983;DHT22;25670;44.782;10.356;2023-04-24T06:07:40;13.00;99.90
39983;DHT22;25670;44.782;10.356;2023-04-24T06:10:08;13.10;99.90
39983;DHT22;25670;44.782;10.356;2023-04-24T06:12:40;13.20;99.90
39983;DHT22;25670;44.782;10.356;2023-04-24T06:15:12;13.40;99.90
39983;DHT22;25670;44.782;10.356;2023-04-24T06:18:02;13.70;99.90
39983;DHT22;25670;44.782;10.356;2023-04-24T06:20:28;14.00;99.90
39983;DHT22;25670;44.782;10.356;2023-04-24T06:22:55;14.10;99.90
39983;DHT22;25670;44.782;10.356;2023-04-24T06:25:21;14.20;99.90
39983;DHT22;25670;44.782;10.356;2023-04-24T06:27:47;14.40;99.90
39983;DHT22;25670;44.782;10.356;2023-04-24T06:30:13;14.50;99.90
39983;DHT22;25670;44.782;10.356;2023-04-24T06:32:40;14.40;99.90
39983;DHT22;25670;44.782;10.356;2023-04-24T06:35:06;14.40;99.90
39983;DHT22;25670;44.782;10.356;2023-04-24T06:37:34;14.30;99.90
39983;DHT22;25670;44.782;10.356;2023-04-24T06:40:00;14.30;99.90
39983;DHT22;25670;44.782;10.356;2023-04-24T06:42:26;14.60;99.90
39983;DHT22;25670;44.782;10.356;2023-04-24T06:52:12;14.40;99.90
39983;DHT22;25670;44.782;10.356;2023-04-24T07:01:58;15.00;99.90
39983;DHT22;25670;44.782;10.356;2023-04-24T07:04:24;15.10;99.90
39983;DHT22;25670;44.782;10.356;2023-04-24T07:09:18;15.80;99.90
39983;DHT22;25670;44.782;10.356;2023-04-24T07:11:45;15.40;99.90
39983;DHT22;25670;44.782;10.356;2023-04-24T07:14:11;14.20;99.90
39983;DHT22;25670;44.782;10.356;2023-04-24T07:21:32;15.70;99.90
39983;DHT22;25670;44.782;10.356;2023-04-24T07:26:30;15.70;99.90
39983;DHT22;25670;44.782;10.356;2023-04-24T07:33:50;15.60;99.90
39983;DHT22;25670;44.782;10.356;2023-04-24T07:38:47;17.00;99.90
39983;DHT22;25670;44.782;10.356;2023-04-24T07:41:14;15.80;99.90
39983;DHT22;25670;44.782;10.356;2023-04-24T07:43:41;15.90;99.90
39983;DHT22;25670;44.782;10.356;2023-04-24T07:46:08;15.90;99.90
39983;DHT22;25670;44.782;10.356;2023-04-24T07:55:56;16.90;99.90
39983;DHT22;25670;44.782;10.356;2023-04-24T08:00:49;16.90;99.90
39983;DHT22;25670;44.782;10.356;2023-04-24T08:03:15;17.00;99.90
39983;DHT22;25670;44.782;10.356;2023-04-24T08:10:37;16.80;99.90
39983;DHT22;25670;44.782;10.356;2023-04-24T08:18:14;16.60;99.90
39983;DHT22;25670;44.782;10.356;2023-04-24T08:28:06;16.90;99.90
39983;DHT22;25670;44.782;10.356;2023-04-24T08:37:54;16.60;99.90
39983;DHT22;25670;44.782;10.356;2023-04-24T08:40:24;16.70;99.90
39983;DHT22;25670;44.782;10.356;2023-04-24T08:42:54;16.80;99.90
39983;DHT22;25670;44.782;10.356;2023-04-24T08:45:23;16.90;99.90
39983;DHT22;25670;44.782;10.356;2023-04-24T08:47:50;17.10;99.90
39983;DHT22;25670;44.782;10.356;2023-04-24T08:50:18;17.10;99.90
39983;DHT22;25670;44.782;10.356;2023-04-24T08:57:39;17.50;99.90
39983;DHT22;25670;44.782;10.356;2023-04-24T09:00:06;17.50;99.90
39983;DHT22;25670;44.782;10.356;2023-04-24T09:02:34;17.50;99.90
39983;DHT22;25670;44.782;10.356;2023-04-24T09:05:01;17.70;99.90
39983;DHT22;25670;44.782;10.356;2023-04-24T09:07:30;17.80;99.90
39983;DHT22;25670;44.782;10.356;2023-04-24T09:09:59;17.80;99.90
39983;DHT22;25670;44.782;10.356;2023-04-24T09:12:28;18.30;99.90
39983;DHT22;25670;44.782;10.356;2023-04-24T09:14:56;18.20;99.90
39983;DHT22;25670;44.782;10.356;2023-04-24T09:17:24;18.60;99.90
39983;DHT22;25670;44.782;10.356;2023-04-24T09:25:02;18.40;99.90
39983;DHT22;25670;44.782;10.356;2023-04-24T09:29:56;18.70;99.90
39983;DHT22;25670;44.782;10.356;2023-04-24T09:32:24;19.10;99.90
39983;DHT22;25670;44.782;10.356;2023-04-24T09:37:37;19.30;99.90
39983;DHT22;25670;44.782;10.356;2023-04-24T09:40:19;19.40;99.90
39983;DHT22;25670;44.782;10.356;2023-04-24T09:42:56;19.40;99.90
39983;DHT22;25670;44.782;10.356;2023-04-24T09:45:35;19.00;99.90
39983;DHT22;25670;44.782;10.356;2023-04-24T09:50:31;19.00;99.90
39983;DHT22;25670;44.782;10.356;2023-04-24T09:53:05;19.00;99.90
39983;DHT22;25670;44.782;10.356;2023-04-24T09:57:59;19.00;99.90
39983;DHT22;25670;44.782;10.356;2023-04-24T10:00:32;19.10;99.90
39983;DHT22;25670;44.782;10.356;2023-04-24T10:03:05;19.40;99.90
39983;DHT22;25670;44.782;10.356;2023-04-24T10:05:36;19.90;99.90
39983;DHT22;25670;44.782;10.356;2023-04-24T10:08:05;20.00;99.90
39983;DHT22;25670;44.782;10.356;2023-04-24T10:10:33;19.70;99.90
39983;DHT22;25670;44.782;10.356;2023-04-24T10:13:00;19.60;99.90
39983;DHT22;25670;44.782;10.356;2023-04-24T10:15:27;19.70;99.90
39983;DHT22;25670;44.782;10.356;2023-04-24T10:20:24;20.00;99.90
39983;DHT22;25670;44.782;10.356;2023-04-24T10:22:53;20.10;99.90
39983;DHT22;25670;44.782;10.356;2023-04-24T10:25:25;20.40;99.90
39983;DHT22;25670;44.782;10.356;2023-04-24T10:27:53;20.00;99.90
39983;DHT22;25670;44.782;10.356;2023-04-24T10:30:23;20.00;99.90
39983;DHT22;25670;44.782;10.356;2023-04-24T10:35:17;19.50;99.90
39983;DHT22;25670;44.782;10.356;2023-04-24T10:37:50;19.60;99.90
39983;DHT22;25670;44.782;10.356;2023-04-24T10:40:34;19.60;99.90
39983;DHT22;25670;44.782;10.356;2023-04-24T10:43:05;19.70;99.90
39983;DHT22;25670;44.782;10.356;2023-04-24T10:45:34;19.70;99.90
39983;DHT22;25670;44.782;10.356;2023-04-24T10:48:05;19.70;99.90
39983;DHT22;25670;44.782;10.356;2023-04-24T10:53:29;19.70;99.90
39983;DHT22;25670;44.782;10.356;2023-04-24T10:58:40;19.80;99.90
39983;DHT22;25670;44.782;10.356;2023-04-24T11:03:34;20.00;99.90
39983;DHT22;25670;44.782;10.356;2023-04-24T11:11:12;20.20;99.90
39983;DHT22;25670;44.782;10.356;2023-04-24T11:16:26;20.50;99.90
39983;DHT22;25670;44.782;10.356;2023-04-24T11:21:43;20.50;99.90
39983;DHT22;25670;44.782;10.356;2023-04-24T11:24:38;20.30;99.90
39983;DHT22;25670;44.782;10.356;2023-04-24T11:27:17;20.70;99.90
39983;DHT22;25670;44.782;10.356;2023-04-24T11:32:28;20.90;99.90
39983;DHT22;25670;44.782;10.356;2023-04-24T11:35:03;21.00;99.90
39983;DHT22;25670;44.782;10.356;2023-04-24T11:37:40;21.20;99.90
39983;DHT22;25670;44.782;10.356;2023-04-24T11:40:16;21.30;99.90
39983;DHT22;25670;44.782;10.356;2023-04-24T11:42:44;21.40;99.90
39983;DHT22;25670;44.782;10.356;2023-04-24T11:47:43;21.50;99.90
39983;DHT22;25670;44.782;10.356;2023-04-24T11:50:11;21.10;99.90
39983;DHT22;25670;44.782;10.356;2023-04-24T11:52:42;21.60;99.90
39983;DHT22;25670;44.782;10.356;2023-04-24T11:57:46;21.80;99.90
39983;DHT22;25670;44.782;10.356;2023-04-24T12:00:23;21.90;99.90
39983;DHT22;25670;44.782;10.356;2023-04-24T12:02:50;22.00;99.90
39983;DHT22;25670;44.782;10.356;2023-04-24T12:05:27;21.80;99.90
39983;DHT22;25670;44.782;10.356;2023-04-24T12:07:53;22.10;99.90
39983;DHT22;25670;44.782;10.356;2023-04-24T12:10:21;22.40;99.90
39983;DHT22;25670;44.782;10.356;2023-04-24T12:12:48;22.10;99.90
39983;DHT22;25670;44.782;10.356;2023-04-24T12:15:17;23.40;99.90
39983;DHT22;25670;44.782;10.356;2023-04-24T12:17:44;23.20;99.90
39983;DHT22;25670;44.782;10.356;2023-04-24T12:20:14;24.70;99.90
39983;DHT22;25670;44.782;10.356;2023-04-24T12:22:49;24.80;99.90
39983;DHT22;25670;44.782;10.356;2023-04-24T12:25:26;25.70;99.90
39983;DHT22;25670;44.782;10.356;2023-04-24T12:28:22;26.60;99.90
39983;DHT22;25670;44.782;10.356;2023-04-24T12:31:00;27.10;99.90
39983;DHT22;25670;44.782;10.356;2023-04-24T12:33:26;27.20;99.90
39983;DHT22;25670;44.782;10.356;2023-04-24T12:35:53;28.10;98.60
39983;DHT22;25670;44.782;10.356;2023-04-24T12:38:35;28.90;99.60
39983;DHT22;25670;44.782;10.356;2023-04-24T12:41:09;29.00;99.30
39983;DHT22;25670;44.782;10.356;2023-04-24T12:43:52;28.70;98.80
39983;DHT22;25670;44.782;10.356;2023-04-24T12:46:22;29.20;95.90
39983;DHT22;25670;44.782;10.356;2023-04-24T12:48:51;30.00;93.60
39983;DHT22;25670;44.782;10.356;2023-04-24T12:51:17;30.00;94.40
39983;DHT22;25670;44.782;10.356;2023-04-24T12:53:43;30.40;92.80
39983;DHT22;25670;44.782;10.356;2023-04-24T12:56:13;31.00;90.80
39983;DHT22;25670;44.782;10.356;2023-04-24T12:58:52;35.00;91.30
39983;DHT22;25670;44.782;10.356;2023-04-24T13:01:21;31.80;90.50
39983;DHT22;25670;44.782;10.356;2023-04-24T13:03:47;31.70;87.00
39983;DHT22;25670;44.782;10.356;2023-04-24T13:06:13;31.00;85.70
39983;DHT22;25670;44.782;10.356;2023-04-24T13:23:22;28.30;90.70
39983;DHT22;25670;44.782;10.356;2023-04-24T13:25:49;29.10;90.00
39983;DHT22;25670;44.782;10.356;2023-04-24T13:30:45;29.30;84.00
39983;DHT22;25670;44.782;10.356;2023-04-24T13:40:33;28.70;86.40
39983;DHT22;25670;44.782;10.356;2023-04-24T13:50:20;30.70;85.40
39983;DHT22;25670;44.782;10.356;2023-04-24T13:52:46;30.40;84.80
39983;DHT22;25670;44.782;10.356;2023-04-24T14:12:37;28.90;83.50
39983;DHT22;25670;44.782;10.356;2023-04-24T14:15:19;29.80;83.70
39983;DHT22;25670;44.782;10.356;2023-04-24T14:17:45;30.40;82.30
39983;DHT22;25670;44.782;10.356;2023-04-24T14:20:12;31.10;80.60
39983;DHT22;25670;44.782;10.356;2023-04-24T14:22:38;31.40;80.00
39983;DHT22;25670;44.782;10.356;2023-04-24T14:25:05;30.70;77.40
39983;DHT22;25670;44.782;10.356;2023-04-24T14:30:00;31.00;76.60
39983;DHT22;25670;44.782;10.356;2023-04-24T14:32:27;31.60;73.90
39983;DHT22;25670;44.782;10.356;2023-04-24T14:37:21;28.90;72.30
39983;DHT22;25670;44.782;10.356;2023-04-24T14:52:00;26.70;75.30
39983;DHT22;25670;44.782;10.356;2023-04-24T14:54:26;26.90;75.30
39983;DHT22;25670;44.782;10.356;2023-04-24T15:04:23;26.50;77.80
39983;DHT22;25670;44.782;10.356;2023-04-24T15:06:54;26.80;77.30
39983;DHT22;25670;44.782;10.356;2023-04-24T15:09:27;27.30;75.30
39983;DHT22;25670;44.782;10.356;2023-04-24T15:12:13;28.10;74.70
39983;DHT22;25670;44.782;10.356;2023-04-24T15:14:43;27.60;72.40
39983;DHT22;25670;44.782;10.356;2023-04-24T15:17:12;28.50;73.40
39983;DHT22;25670;44.782;10.356;2023-04-24T15:19:38;27.80;72.20
39983;DHT22;25670;44.782;10.356;2023-04-24T15:22:04;27.90;73.70
39983;DHT22;25670;44.782;10.356;2023-04-24T15:24:31;28.20;73.70
39983;DHT22;25670;44.782;10.356;2023-04-24T15:27:00;28.10;73.90
39983;DHT22;25670;44.782;10.356;2023-04-24T15:31:54;26.70;76.80
39983;DHT22;25670;44.782;10.356;2023-04-24T15:34:20;26.10;78.70
39983;DHT22;25670;44.782;10.356;2023-04-24T15:36:47;26.60;77.90
39983;DHT22;25670;44.782;10.356;2023-04-24T15:39:13;27.10;75.20
39983;DHT22;25670;44.782;10.356;2023-04-24T15:44:05;27.80;77.10
39983;DHT22;25670;44.782;10.356;2023-04-24T15:46:34;27.50;76.90
39983;DHT22;25670;44.782;10.356;2023-04-24T15:49:00;27.80;77.70
39983;DHT22;25670;44.782;10.356;2023-04-24T15:51:27;27.40;77.50
39983;DHT22;25670;44.782;10.356;2023-04-24T15:53:53;27.30;77.30
39983;DHT22;25670;44.782;10.356;2023-04-24T15:56:19;28.00;77.30
39983;DHT22;25670;44.782;10.356;2023-04-24T15:58:45;27.80;75.80
39983;DHT22;25670;44.782;10.356;2023-04-24T16:01:11;28.00;75.70
39983;DHT22;25670;44.782;10.356;2023-04-24T16:03:38;28.30;76.10
39983;DHT22;25670;44.782;10.356;2023-04-24T16:06:04;28.70;75.80
39983;DHT22;25670;44.782;10.356;2023-04-24T16:08:31;27.90;77.30
39983;DHT22;25670;44.782;10.356;2023-04-24T16:10:57;28.00;77.40
39983;DHT22;25670;44.782;10.356;2023-04-24T16:13:23;28.00;77.80
39983;DHT22;25670;44.782;10.356;2023-04-24T16:15:50;28.20;77.70
39983;DHT22;25670;44.782;10.356;2023-04-24T16:18:16;27.40;77.80
39983;DHT22;25670;44.782;10.356;2023-04-24T16:20:43;27.30;77.30
39983;DHT22;25670;44.782;10.356;2023-04-24T16:25:36;27.50;80.40
39983;DHT22;25670;44.782;10.356;2023-04-24T16:28:02;27.50;79.20
39983;DHT22;25670;44.782;10.356;2023-04-24T16:30:29;27.80;79.60
39983;DHT22;25670;44.782;10.356;2023-04-24T16:32:55;27.80;78.50
39983;DHT22;25670;44.782;10.356;2023-04-24T16:35:21;27.70;80.30
39983;DHT22;25670;44.782;10.356;2023-04-24T16:40:15;27.40;79.70
39983;DHT22;25670;44.782;10.356;2023-04-24T16:42:41;26.90;80.30
39983;DHT22;25670;44.782;10.356;2023-04-24T16:45:08;26.70;79.80
39983;DHT22;25670;44.782;10.356;2023-04-24T16:47:35;27.40;77.80
39983;DHT22;25670;44.782;10.356;2023-04-24T16:50:01;26.90;77.70
39983;DHT22;25670;44.782;10.356;2023-04-24T16:52:27;27.10;80.00
39983;DHT22;25670;44.782;10.356;2023-04-24T16:54:53;27.40;79.30
39983;DHT22;25670;44.782;10.356;2023-04-24T16:57:20;27.70;80.00
39983;DHT22;25670;44.782;10.356;2023-04-24T16:59:46;27.10;80.10
39983;DHT22;25670;44.782;10.356;2023-04-24T17:07:06;26.90;82.10
39983;DHT22;25670;44.782;10.356;2023-04-24T17:11:59;25.80;83.30
39983;DHT22;25670;44.782;10.356;2023-04-24T17:14:27;27.30;83.30
39983;DHT22;25670;44.782;10.356;2023-04-24T17:16:53;26.50;84.30
39983;DHT22;25670;44.782;10.356;2023-04-24T17:19:19;26.80;85.40
39983;DHT22;25670;44.782;10.356;2023-04-24T17:24:12;26.30;85.90
39983;DHT22;25670;44.782;10.356;2023-04-24T17:31:31;24.70;87.30
39983;DHT22;25670;44.782;10.356;2023-04-24T17:33:58;23.40;91.10
39983;DHT22;25670;44.782;10.356;2023-04-24T17:43:44;21.50;95.30
39983;DHT22;25670;44.782;10.356;2023-04-24T17:48:37;20.80;98.30
39983;DHT22;25670;44.782;10.356;2023-04-24T17:55:57;20.50;99.90
39983;DHT22;25670;44.782;10.356;2023-04-24T17:58:27;20.20;99.90
39983;DHT22;25670;44.782;10.356;2023-04-24T18:05:46;19.10;99.90
39983;DHT22;25670;44.782;10.356;2023-04-24T18:08:13;18.70;99.90
39983;DHT22;25670;44.782;10.356;2023-04-24T18:32:51;17.10;99.90
39983;DHT22;25670;44.782;10.356;2023-04-24T18:35:21;17.10;99.90
39983;DHT22;25670;44.782;10.356;2023-04-24T18:40:15;17.10;99.90
39983;DHT22;25670;44.782;10.356;2023-04-24T18:45:08;17.70;99.90
39983;DHT22;25670;44.782;10.356;2023-04-24T18:50:02;16.60;99.90
39983;DHT22;25670;44.782;10.356;2023-04-24T18:54:58;16.60;99.90
39983;DHT22;25670;44.782;10.356;2023-04-24T19:38:59;15.30;99.90
39983;DHT22;25670;44.782;10.356;2023-04-24T19:41:25;15.70;99.90
39983;DHT22;25670;44.782;10.356;2023-04-24T19:46:18;15.50;99.90
39983;DHT22;25670;44.782;10.356;2023-04-24T19:48:44;15.00;99.90
39983;DHT22;25670;44.782;10.356;2023-04-24T19:58:30;14.90;99.90
39983;DHT22;25670;44.782;10.356;2023-04-24T20:03:23;15.00;99.90
39983;DHT22;25670;44.782;10.356;2023-04-24T20:05:49;14.90;99.90
39983;DHT22;25670;44.782;10.356;2023-04-24T20:13:16;14.90;99.90
39983;DHT22;25670;44.782;10.356;2023-04-24T20:23:04;14.80;99.90
39983;DHT22;25670;44.782;10.356;2023-04-24T20:40:10;14.10;99.90
39983;DHT22;25670;44.782;10.356;2023-04-24T20:45:06;14.40;99.90
39983;DHT22;25670;44.782;10.356;2023-04-24T20:50:12;13.60;99.90
39983;DHT22;25670;44.782;10.356;2023-04-24T20:55:17;13.30;99.90
39983;DHT22;25670;44.782;10.356;2023-04-24T21:05:04;13.20;99.90
39983;DHT22;25670;44.782;10.356;2023-04-24T21:32:01;12.50;99.90
39983;DHT22;25670;44.782;10.356;2023-04-24T21:36:55;12.50;99.90
39983;DHT22;25670;44.782;10.356;2023-04-24T21:39:21;13.00;99.90
39983;DHT22;25670;44.782;10.356;2023-04-24T22:11:06;12.00;99.90
39983;DHT22;25670;44.782;10.356;2023-04-24T22:28:16;12.30;99.90
39983;DHT22;25670;44.782;10.356;2023-04-24T22:33:14;11.70;99.90
39983;DHT22;25670;44.782;10.356;2023-04-24T23:00:07;11.80;99.90
39983;DHT22;25670;44.782;10.356;2023-04-24T23:02:39;11.90;99.90
39983;DHT22;25670;44.782;10.356;2023-04-24T23:07:34;12.00;99.90
39983;DHT22;25670;44.782;10.356;2023-04-24T23:58:54;11.00;99.90
